Time;durP1;ratioP1;P1;durP2;ratioP2;P2;SDS_P1;SDS_P2;PMS_P1;PMS_P2;Temp;Humidity;BMP_temperature;BMP_pressure;BME280_temperature;BME280_humidity;BME280_pressure;Samples;Min_cycle;Max_cycle;Signal;HPM_P1;HPM_P2
2022/02/25 00:01:57;;;;;;;5.72;1.90;;;4.10;78.50;;;;;;5006829;28;20053;-81
2022/02/25 00:04:23;;;;;;;5.25;1.63;;;4.10;78.50;;;;;;5008705;28;20033;-79
2022/02/25 00:06:48;;;;;;;5.40;1.90;;;4.10;78.60;;;;;;5006550;28;20033;-79
2022/02/25 00:09:14;;;;;;;3.00;1.40;;;4.00;78.60;;;;;;5006528;28;20106;-80
2022/02/25 00:11:39;;;;;;;7.10;1.90;;;4.10;78.70;;;;;;5007804;28;20073;-79
2022/02/25 00:14:05;;;;;;;5.05;2.00;;;4.00;78.70;;;;;;5010212;28;20062;-81
2022/02/25 00:16:30;;;;;;;4.65;1.63;;;4.00;78.90;;;;;;5006531;28;20026;-80
2022/02/25 00:18:56;;;;;;;5.32;1.80;;;4.00;78.90;;;;;;5011041;28;20022;-81
2022/02/25 00:21:21;;;;;;;4.55;1.52;;;4.00;78.90;;;;;;5009352;28;20029;-80
2022/02/25 00:23:47;;;;;;;5.63;1.67;;;4.00;78.90;;;;;;5005400;28;20022;-80
2022/02/25 00:26:12;;;;;;;4.95;1.73;;;4.00;78.90;;;;;;5004981;28;20378;-80
2022/02/25 00:28:38;;;;;;;4.10;1.63;;;4.00;79.50;;;;;;5002522;28;20022;-79
2022/02/25 00:31:03;;;;;;;3.90;1.90;;;3.90;78.80;;;;;;5013380;28;20048;-80
2022/02/25 00:33:29;;;;;;;5.32;1.60;;;4.00;78.90;;;;;;5017284;28;20022;-81
2022/02/25 00:35:54;;;;;;;3.97;1.70;;;4.00;78.90;;;;;;5012745;28;20022;-80
2022/02/25 00:38:20;;;;;;;4.97;1.70;;;3.90;78.80;;;;;;5001726;28;20431;-81
2022/02/25 00:40:46;;;;;;;4.18;1.70;;;3.90;78.80;;;;;;5015990;28;20436;-80
2022/02/25 00:43:12;;;;;;;4.97;1.45;;;3.90;78.80;;;;;;5007037;28;20474;-80
2022/02/25 00:45:38;;;;;;;4.45;1.60;;;4.00;78.80;;;;;;5013730;28;20449;-81
2022/02/25 00:48:04;;;;;;;3.95;1.50;;;4.00;78.80;;;;;;5018619;28;20091;-80
2022/02/25 00:50:30;;;;;;;7.25;1.75;;;4.00;78.70;;;;;;5015589;28;20564;-80
2022/02/25 00:52:56;;;;;;;3.75;1.80;;;4.00;78.60;;;;;;5013382;28;20109;-81
2022/02/25 00:55:22;;;;;;;5.70;1.80;;;4.10;78.40;;;;;;5014864;28;20022;-80
2022/02/25 00:57:49;;;;;;;6.00;1.85;;;4.20;78.30;;;;;;5013688;28;20120;-80
2022/02/25 01:00:19;;;;;;;4.28;1.60;;;4.20;78.20;;;;;;5005573;28;20022;-80
2022/02/25 01:02:47;;;;;;;3.83;1.30;;;4.20;78.10;;;;;;5010602;28;20106;-80
2022/02/25 01:05:13;;;;;;;3.97;1.50;;;4.20;78.00;;;;;;5020470;28;20383;-80
2022/02/25 01:07:40;;;;;;;5.30;1.50;;;4.20;77.90;;;;;;5015581;28;20080;-80
2022/02/25 01:10:08;;;;;;;7.18;1.80;;;4.30;77.90;;;;;;5016795;28;20121;-80
2022/02/25 01:12:34;;;;;;;5.10;1.40;;;4.30;77.80;;;;;;5015077;28;20064;-81
2022/02/25 01:15:00;;;;;;;3.75;1.27;;;4.20;77.70;;;;;;5013373;28;20018;-81
2022/02/25 01:17:26;;;;;;;7.93;1.80;;;4.30;77.70;;;;;;5017930;28;20391;-80
2022/02/25 01:19:51;;;;;;;6.22;1.55;;;4.20;77.60;;;;;;5018088;28;20025;-80
2022/02/25 01:22:17;;;;;;;4.15;1.65;;;4.20;77.60;;;;;;5012949;28;20042;-79
2022/02/25 01:24:43;;;;;;;5.60;1.75;;;4.20;77.60;;;;;;5021368;28;20033;-79
2022/02/25 01:27:08;;;;;;;5.22;1.80;;;4.10;77.60;;;;;;5019983;28;20041;-80
2022/02/25 01:29:35;;;;;;;4.70;1.60;;;4.10;77.60;;;;;;5016335;28;20057;-80
2022/02/25 01:32:01;;;;;;;4.13;1.70;;;4.10;77.60;;;;;;5019186;28;20381;-78
2022/02/25 01:34:27;;;;;;;6.53;1.90;;;4.00;77.50;;;;;;5018897;28;20022;-79
2022/02/25 01:36:52;;;;;;;5.53;1.80;;;4.00;77.50;;;;;;5018898;28;20048;-79
2022/02/25 01:39:18;;;;;;;3.60;1.50;;;4.00;77.60;;;;;;5016507;28;20617;-79
2022/02/25 01:41:43;;;;;;;4.10;1.50;;;3.90;77.50;;;;;;5015605;28;20388;-79
2022/02/25 01:44:18;;;;;;;5.28;2.13;;;3.90;77.60;;;;;;5024430;28;20403;-79
2022/02/25 01:46:48;;;;;;;5.95;1.85;;;3.80;77.70;;;;;;5014780;28;20076;-79
2022/02/25 01:49:15;;;;;;;5.90;2.00;;;3.80;77.80;;;;;;5009884;28;20109;-80
2022/02/25 01:51:41;;;;;;;6.80;1.95;;;3.80;77.90;;;;;;5020218;28;20045;-80
2022/02/25 01:54:07;;;;;;;6.70;2.25;;;3.80;78.00;;;;;;5013946;28;20661;-80
2022/02/25 01:56:34;;;;;;;5.45;2.15;;;3.70;78.00;;;;;;5013374;28;20032;-81
2022/02/25 01:59:00;;;;;;;7.30;2.28;;;3.70;78.20;;;;;;5012736;28;20494;-81
2022/02/25 02:01:26;;;;;;;5.65;2.08;;;3.70;78.30;;;;;;5010371;28;20037;-80
2022/02/25 02:03:53;;;;;;;5.40;2.45;;;3.70;78.50;;;;;;5015146;28;20389;-80
2022/02/25 02:06:20;;;;;;;5.28;2.50;;;3.60;78.50;;;;;;5016065;28;20055;-80
2022/02/25 02:08:45;;;;;;;7.95;3.20;;;3.60;78.60;;;;;;5015391;28;20376;-80
2022/02/25 02:11:11;;;;;;;5.93;2.45;;;3.60;78.70;;;;;;5015545;28;20741;-82
2022/02/25 02:13:36;;;;;;;5.57;2.50;;;3.60;78.80;;;;;;5017844;28;20034;-81
2022/02/25 02:16:02;;;;;;;4.78;2.58;;;3.60;79.00;;;;;;5002363;28;20026;-81
2022/02/25 02:18:27;;;;;;;6.53;2.30;;;3.60;79.10;;;;;;5011148;28;20026;-82
2022/02/25 02:20:53;;;;;;;14.00;2.85;;;3.50;79.10;;;;;;5016834;28;20018;-81
2022/02/25 02:23:18;;;;;;;4.90;2.72;;;3.50;79.20;;;;;;5019694;28;20752;-80
2022/02/25 02:25:44;;;;;;;8.40;2.88;;;3.50;79.20;;;;;;5015143;28;20021;-80
2022/02/25 02:28:19;;;;;;;6.90;2.78;;;3.50;79.20;;;;;;5007909;28;20041;-79
2022/02/25 02:30:45;;;;;;;5.63;2.88;;;3.50;79.30;;;;;;5007705;28;20500;-80
2022/02/25 02:33:11;;;;;;;8.32;3.70;;;3.60;79.30;;;;;;5006971;28;20062;-80
2022/02/25 02:35:37;;;;;;;5.70;2.70;;;3.50;79.40;;;;;;5011159;28;20072;-80
2022/02/25 02:38:03;;;;;;;8.02;3.28;;;3.50;79.40;;;;;;5012958;28;20026;-81
2022/02/25 02:40:29;;;;;;;9.93;3.33;;;3.50;79.30;;;;;;5021965;28;20097;-80
2022/02/25 02:42:54;;;;;;;7.50;2.88;;;3.50;79.40;;;;;;5017604;28;20105;-80
2022/02/25 02:45:21;;;;;;;7.57;2.95;;;3.50;79.40;;;;;;5013567;28;20030;-80
2022/02/25 02:47:46;;;;;;;5.53;2.67;;;3.50;79.50;;;;;;5006127;28;20549;-80
2022/02/25 02:50:12;;;;;;;7.90;3.00;;;3.50;79.40;;;;;;5015054;28;20022;-80
2022/02/25 02:52:38;;;;;;;5.53;2.50;;;3.50;79.40;;;;;;5012083;28;20104;-79
2022/02/25 02:55:05;;;;;;;7.38;3.15;;;3.50;79.40;;;;;;5020284;28;20014;-80
2022/02/25 02:57:31;;;;;;;6.03;3.10;;;3.60;79.40;;;;;;5016385;28;20120;-80
2022/02/25 02:59:56;;;;;;;5.38;2.75;;;3.50;79.30;;;;;;5014897;28;20113;-81
2022/02/25 03:02:22;;;;;;;4.57;2.70;;;3.60;79.40;;;;;;5018999;28;20373;-81
2022/02/25 03:04:47;;;;;;;7.35;2.75;;;3.50;79.30;;;;;;5014594;28;20026;-80
2022/02/25 03:07:13;;;;;;;6.40;2.88;;;3.50;79.30;;;;;;5011638;28;20029;-81
2022/02/25 03:09:39;;;;;;;6.72;3.35;;;3.50;79.40;;;;;;5012036;28;20539;-80
2022/02/25 03:12:05;;;;;;;6.30;3.28;;;3.50;79.50;;;;;;5011844;28;20045;-81
2022/02/25 03:14:31;;;;;;;6.03;3.15;;;3.50;80.20;;;;;;5021254;28;20026;-81
2022/02/25 03:16:56;;;;;;;5.18;2.80;;;3.50;79.50;;;;;;5009806;28;20030;-81
2022/02/25 03:19:22;;;;;;;6.10;2.90;;;3.50;79.60;;;;;;5014259;28;20021;-80
2022/02/25 03:21:48;;;;;;;6.45;2.67;;;3.60;79.50;;;;;;5012984;28;20109;-80
2022/02/25 03:24:13;;;;;;;6.35;2.80;;;3.60;79.50;;;;;;5009255;28;20028;-81
2022/02/25 03:26:39;;;;;;;6.47;2.97;;;3.60;79.50;;;;;;5013826;28;20030;-81
2022/02/25 03:29:04;;;;;;;6.72;3.03;;;3.50;79.50;;;;;;5014235;28;20029;-79
2022/02/25 03:31:30;;;;;;;6.22;3.00;;;3.60;79.60;;;;;;5011816;28;20037;-79
2022/02/25 03:33:55;;;;;;;6.72;2.88;;;3.60;79.60;;;;;;5013186;28;20513;-79
2022/02/25 03:36:21;;;;;;;6.63;2.97;;;3.60;79.60;;;;;;5016611;28;20473;-79
2022/02/25 03:38:47;;;;;;;6.60;3.40;;;3.60;79.60;;;;;;5017213;28;20087;-80
2022/02/25 03:41:13;;;;;;;6.10;3.08;;;3.60;79.60;;;;;;5011866;28;20018;-79
2022/02/25 03:43:38;;;;;;;4.80;2.65;;;3.60;79.60;;;;;;5020556;28;20500;-80
2022/02/25 03:46:04;;;;;;;7.85;2.97;;;3.60;79.60;;;;;;5017059;28;20038;-79
2022/02/25 03:48:30;;;;;;;8.70;2.95;;;3.60;79.50;;;;;;5010744;28;20049;-80
2022/02/25 03:50:55;;;;;;;7.03;2.83;;;3.60;79.50;;;;;;5018978;28;20028;-79
2022/02/25 03:53:21;;;;;;;9.10;2.90;;;3.60;79.50;;;;;;5013199;28;20029;-79
2022/02/25 03:55:47;;;;;;;7.82;3.17;;;3.60;79.50;;;;;;5019118;28;20025;-80
2022/02/25 03:58:12;;;;;;;8.35;2.90;;;3.60;79.50;;;;;;5012375;28;20026;-79
2022/02/25 04:00:38;;;;;;;7.20;2.70;;;3.60;79.50;;;;;;5013779;28;20033;-81
2022/02/25 04:03:04;;;;;;;5.85;2.40;;;3.60;79.50;;;;;;5012830;28;20034;-79
2022/02/25 04:05:30;;;;;;;6.72;3.00;;;3.60;79.50;;;;;;5017144;28;20113;-80
2022/02/25 04:07:56;;;;;;;6.88;2.60;;;3.60;79.50;;;;;;5014136;28;20392;-78
2022/02/25 04:10:22;;;;;;;6.97;2.80;;;3.60;79.50;;;;;;5013633;28;20018;-79
2022/02/25 04:12:48;;;;;;;5.45;2.47;;;3.60;79.80;;;;;;5008847;28;20135;-79
2022/02/25 04:15:14;;;;;;;6.30;2.72;;;3.60;79.50;;;;;;5019918;28;20388;-79
2022/02/25 04:17:39;;;;;;;11.07;3.20;;;3.60;79.40;;;;;;5008540;28;20025;-79
2022/02/25 04:20:06;;;;;;;5.93;2.60;;;3.60;79.40;;;;;;5007345;28;20528;-79
2022/02/25 04:22:31;;;;;;;8.25;2.67;;;3.60;79.40;;;;;;5010030;28;20044;-79
2022/02/25 04:24:57;;;;;;;7.88;3.03;;;3.60;79.40;;;;;;5017251;28;20764;-80
2022/02/25 04:27:23;;;;;;;9.43;2.88;;;3.50;79.40;;;;;;5004907;28;20393;-80
2022/02/25 04:29:48;;;;;;;7.95;2.80;;;3.50;79.50;;;;;;5008949;28;20080;-80
2022/02/25 04:32:15;;;;;;;9.57;2.97;;;3.50;79.50;;;;;;5013645;28;20064;-80
2022/02/25 04:34:40;;;;;;;7.57;2.92;;;3.50;79.60;;;;;;5018449;28;20106;-81
2022/02/25 04:37:06;;;;;;;6.43;2.70;;;3.50;79.60;;;;;;5012443;28;20499;-80
2022/02/25 04:39:31;;;;;;;8.18;3.05;;;3.50;79.60;;;;;;5014394;28;20050;-80
2022/02/25 04:41:57;;;;;;;7.72;3.13;;;3.50;79.60;;;;;;5009596;28;20025;-80
2022/02/25 04:44:22;;;;;;;8.30;2.85;;;3.50;79.80;;;;;;5020151;28;20033;-80
2022/02/25 04:46:49;;;;;;;8.20;2.70;;;3.50;79.70;;;;;;5014396;28;20417;-80
2022/02/25 04:49:16;;;;;;;10.73;3.33;;;3.50;79.80;;;;;;5013522;28;20022;-80
2022/02/25 04:51:42;;;;;;;7.38;3.00;;;3.50;79.80;;;;;;5013075;28;20515;-80
2022/02/25 04:54:10;;;;;;;6.57;2.50;;;3.50;79.80;;;;;;5019618;28;20116;-80
2022/02/25 04:56:35;;;;;;;8.73;2.78;;;3.40;79.70;;;;;;5013996;28;20028;-80
2022/02/25 04:59:01;;;;;;;8.60;2.63;;;3.50;79.90;;;;;;5014538;28;20034;-80
2022/02/25 05:01:27;;;;;;;10.88;3.65;;;3.50;79.80;;;;;;5008989;28;20037;-79
2022/02/25 05:03:52;;;;;;;10.13;2.88;;;3.50;79.90;;;;;;5011927;28;20026;-79
2022/02/25 05:06:18;;;;;;;6.72;2.95;;;3.40;79.90;;;;;;5009592;28;20029;-80
2022/02/25 05:08:44;;;;;;;8.45;3.00;;;3.40;80.00;;;;;;5010528;28;20052;-80
2022/02/25 05:11:10;;;;;;;7.47;2.75;;;3.50;80.00;;;;;;5012843;28;20507;-80
2022/02/25 05:13:36;;;;;;;7.35;2.70;;;3.50;80.00;;;;;;5013173;28;20030;-81
2022/02/25 05:21:30;;;;;;;8.85;3.22;;;3.50;80.00;;;;;;5002798;28;20040;-78
2022/02/25 05:23:55;;;;;;;10.80;3.35;;;3.50;80.10;;;;;;5007755;28;20022;-79
2022/02/25 05:26:22;;;;;;;7.47;2.65;;;3.50;80.20;;;;;;5008827;28;20025;-78
2022/02/25 05:28:48;;;;;;;9.55;2.88;;;3.40;80.30;;;;;;5013791;28;20052;-78
2022/02/25 05:31:15;;;;;;;9.52;3.15;;;3.40;80.40;;;;;;5011126;28;20079;-79
2022/02/25 05:33:41;;;;;;;7.93;2.80;;;3.40;80.40;;;;;;5013526;28;20026;-79
2022/02/25 05:36:06;;;;;;;10.75;2.80;;;3.40;80.50;;;;;;5009176;28;20045;-79
2022/02/25 05:38:41;;;;;;;12.75;3.10;;;3.40;80.50;;;;;;5014522;28;20472;-79
2022/02/25 05:41:07;;;;;;;8.02;3.03;;;3.50;80.60;;;;;;5005761;28;20026;-79
2022/02/25 05:43:32;;;;;;;10.68;3.17;;;3.50;80.60;;;;;;5012377;28;20079;-79
2022/02/25 05:45:58;;;;;;;6.25;2.40;;;3.50;80.60;;;;;;5013436;28;20022;-80
2022/02/25 05:48:24;;;;;;;7.13;2.72;;;3.60;80.70;;;;;;5019980;28;20029;-79
2022/02/25 05:50:49;;;;;;;9.98;2.90;;;3.70;80.70;;;;;;5012358;28;20030;-80
2022/02/25 05:53:15;;;;;;;11.98;2.78;;;3.60;80.70;;;;;;5011100;28;20065;-80
2022/02/25 05:55:40;;;;;;;11.57;3.10;;;3.60;80.60;;;;;;5015119;28;20018;-79
2022/02/25 05:58:06;;;;;;;11.25;3.30;;;3.60;80.60;;;;;;5012779;28;20430;-79
2022/02/25 06:00:32;;;;;;;12.85;3.33;;;3.60;80.60;;;;;;5013888;28;20018;-79
2022/02/25 06:02:58;;;;;;;9.55;3.00;;;3.60;80.70;;;;;;5012082;28;20056;-79
2022/02/25 06:05:23;;;;;;;8.13;2.63;;;3.60;80.80;;;;;;5016786;28;20018;-80
2022/02/25 06:07:49;;;;;;;12.02;3.10;;;3.70;80.80;;;;;;5009284;28;20488;-80
2022/02/25 06:10:15;;;;;;;9.93;2.40;;;3.70;80.90;;;;;;5009358;28;20034;-80
2022/02/25 06:12:41;;;;;;;10.20;2.60;;;3.70;80.80;;;;;;5018830;28;20128;-79
2022/02/25 06:15:08;;;;;;;10.25;2.58;;;3.70;80.80;;;;;;5009803;28;20633;-80
2022/02/25 06:17:41;;;;;;;8.88;3.17;;;3.80;80.80;;;;;;5010536;28;20443;-80
2022/02/25 06:20:07;;;;;;;7.32;2.35;;;3.90;80.70;;;;;;5004361;28;20453;-78
2022/02/25 06:22:33;;;;;;;10.32;3.03;;;3.90;80.60;;;;;;5004014;28;20018;-79
2022/02/25 06:24:58;;;;;;;7.30;2.30;;;4.00;80.70;;;;;;5009715;28;20034;-81
2022/02/25 06:27:24;;;;;;;9.35;2.65;;;4.00;80.80;;;;;;5006638;28;20029;-80
2022/02/25 06:29:49;;;;;;;10.52;2.65;;;4.00;80.90;;;;;;5010590;28;20053;-80
2022/02/25 06:32:15;;;;;;;14.25;3.42;;;4.00;81.10;;;;;;5011856;28;20045;-79
2022/02/25 06:34:40;;;;;;;11.05;2.75;;;4.00;81.20;;;;;;5012767;28;20026;-80
2022/02/25 06:37:06;;;;;;;7.72;2.35;;;4.00;81.30;;;;;;5015296;28;20109;-80
2022/02/25 06:39:31;;;;;;;7.88;2.70;;;4.00;81.50;;;;;;5012309;28;20776;-80
2022/02/25 06:41:57;;;;;;;13.55;3.25;;;4.10;81.70;;;;;;5016931;28;20036;-79
2022/02/25 06:44:22;;;;;;;9.43;3.25;;;4.10;81.90;;;;;;5010910;28;20433;-78
2022/02/25 06:46:48;;;;;;;11.27;3.17;;;4.10;82.20;;;;;;5009240;28;20491;-78
2022/02/25 06:49:13;;;;;;;14.60;3.05;;;4.10;82.30;;;;;;5010160;28;20473;-78
2022/02/25 06:51:39;;;;;;;9.35;3.00;;;4.10;82.40;;;;;;5009134;28;20388;-79
2022/02/25 06:54:05;;;;;;;10.00;2.70;;;4.10;82.40;;;;;;5005175;28;20033;-79
2022/02/25 06:56:31;;;;;;;8.20;2.90;;;4.20;82.50;;;;;;5006257;28;20032;-78
2022/02/25 06:58:56;;;;;;;9.20;3.15;;;4.30;82.50;;;;;;5000367;28;20014;-79
2022/02/25 07:01:22;;;;;;;8.85;2.97;;;4.20;82.90;;;;;;5004962;28;20540;-73
2022/02/25 07:03:48;;;;;;;9.68;2.80;;;4.20;83.00;;;;;;5005725;28;20131;-74
2022/02/25 07:06:13;;;;;;;5.35;2.80;;;4.30;83.10;;;;;;5009021;28;20022;-73
2022/02/25 07:08:39;;;;;;;9.15;3.00;;;4.20;83.80;;;;;;5005570;28;20424;-73
2022/02/25 07:11:04;;;;;;;7.57;2.33;;;4.30;83.40;;;;;;5010758;28;20037;-74
2022/02/25 07:13:30;;;;;;;7.72;3.10;;;4.30;83.50;;;;;;5008301;28;20147;-74
2022/02/25 07:15:58;;;;;;;8.55;3.10;;;4.30;83.60;;;;;;5006565;28;20156;-74
2022/02/25 07:18:23;;;;;;;7.95;2.72;;;4.40;84.30;;;;;;5007965;28;20022;-74
2022/02/25 07:20:49;;;;;;;12.85;3.40;;;4.40;83.80;;;;;;5008979;28;20032;-74
2022/02/25 07:23:16;;;;;;;7.90;2.70;;;4.40;83.90;;;;;;5007714;28;20141;-74
2022/02/25 07:25:42;;;;;;;8.73;2.95;;;4.50;83.90;;;;;;5004607;28;20137;-73
2022/02/25 07:28:08;;;;;;;8.57;3.25;;;4.50;83.70;;;;;;5008459;28;20025;-75
2022/02/25 07:30:34;;;;;;;10.45;3.00;;;4.60;83.70;;;;;;5011072;28;20479;-73
2022/02/25 07:33:00;;;;;;;10.00;3.10;;;4.70;83.70;;;;;;5011635;28;20108;-73
2022/02/25 07:35:26;;;;;;;12.15;3.20;;;4.70;83.70;;;;;;5013253;28;20111;-73
2022/02/25 07:37:52;;;;;;;12.00;3.17;;;4.70;83.80;;;;;;5004987;28;20041;-75
2022/02/25 07:40:18;;;;;;;8.25;3.08;;;4.80;83.80;;;;;;5008752;28;20033;-74
2022/02/25 07:42:44;;;;;;;9.90;2.83;;;4.90;83.80;;;;;;5009932;28;20017;-72
2022/02/25 07:45:11;;;;;;;7.55;2.63;;;5.00;83.70;;;;;;5004555;28;20033;-73
2022/02/25 07:47:38;;;;;;;10.32;2.83;;;5.00;83.60;;;;;;5003038;28;20022;-75
2022/02/25 07:50:09;;;;;;;9.90;3.00;;;5.10;83.50;;;;;;5009723;28;20092;-75
2022/02/25 07:52:35;;;;;;;9.50;2.83;;;5.20;83.40;;;;;;5007390;28;20068;-74
2022/02/25 07:55:01;;;;;;;10.52;2.72;;;5.30;83.20;;;;;;5009115;28;20045;-74
2022/02/25 07:57:27;;;;;;;9.02;2.50;;;5.30;83.10;;;;;;5006073;28;20511;-75
2022/02/25 07:59:52;;;;;;;11.15;3.50;;;5.40;83.00;;;;;;5009126;28;20057;-73
2022/02/25 08:02:18;;;;;;;13.13;2.83;;;5.30;83.10;;;;;;5005979;28;20374;-74
2022/02/25 08:04:43;;;;;;;8.40;2.30;;;5.40;83.20;;;;;;5009784;28;20521;-75
2022/02/25 08:07:11;;;;;;;9.93;2.50;;;5.40;83.20;;;;;;5007250;28;20072;-76
2022/02/25 08:09:36;;;;;;;10.73;2.53;;;5.50;83.10;;;;;;5006063;28;20038;-73
2022/02/25 08:12:03;;;;;;;11.13;2.78;;;5.50;83.10;;;;;;5009589;28;20125;-74
2022/02/25 08:14:30;;;;;;;9.73;2.38;;;5.60;83.00;;;;;;5018869;28;20022;-74
2022/02/25 08:16:55;;;;;;;8.32;2.75;;;5.70;83.00;;;;;;5010613;28;20037;-73
2022/02/25 08:19:21;;;;;;;8.48;2.30;;;5.70;82.80;;;;;;5009082;28;20033;-75
2022/02/25 08:21:47;;;;;;;8.25;2.20;;;5.80;82.70;;;;;;5000502;28;20129;-75
2022/02/25 08:24:12;;;;;;;9.20;2.20;;;5.90;82.70;;;;;;5008128;28;20649;-76
2022/02/25 08:26:38;;;;;;;8.48;2.63;;;6.00;82.60;;;;;;5006737;28;20038;-75
2022/02/25 08:29:03;;;;;;;9.23;2.67;;;6.10;82.30;;;;;;5010596;28;20079;-76
2022/02/25 08:31:29;;;;;;;7.82;2.55;;;6.10;82.10;;;;;;5012235;28;20045;-75
2022/02/25 08:33:55;;;;;;;10.70;2.67;;;6.20;82.00;;;;;;5009318;28;20018;-76
2022/02/25 08:36:20;;;;;;;13.38;2.70;;;6.20;81.80;;;;;;5009242;28;20033;-74
2022/02/25 08:38:46;;;;;;;7.72;2.42;;;6.30;81.70;;;;;;5009370;28;20120;-74
2022/02/25 08:41:12;;;;;;;10.23;2.38;;;6.40;81.50;;;;;;5005236;28;20136;-74
2022/02/25 08:43:38;;;;;;;9.73;2.45;;;6.50;81.30;;;;;;5010647;28;20061;-75
2022/02/25 08:46:05;;;;;;;12.43;2.80;;;6.50;81.10;;;;;;5007716;28;20038;-75
2022/02/25 08:48:31;;;;;;;7.35;2.47;;;6.60;81.00;;;;;;5008982;28;20026;-74
2022/02/25 08:50:57;;;;;;;10.25;2.65;;;6.70;80.80;;;;;;5007462;28;20080;-74
2022/02/25 08:53:24;;;;;;;13.23;2.90;;;6.80;80.50;;;;;;5004202;28;20026;-74
2022/02/25 08:55:50;;;;;;;10.25;2.10;;;6.80;80.40;;;;;;5007557;28;20508;-75
2022/02/25 08:58:16;;;;;;;8.40;2.13;;;6.80;80.10;;;;;;5008537;28;20037;-74
2022/02/25 09:00:41;;;;;;;8.73;2.42;;;6.90;80.10;;;;;;5007083;28;20119;-75
2022/02/25 09:03:07;;;;;;;12.43;2.88;;;6.90;79.90;;;;;;5010830;28;20037;-75
2022/02/25 09:05:32;;;;;;;9.90;2.53;;;7.00;79.70;;;;;;5008568;28;20045;-77
2022/02/25 09:07:58;;;;;;;11.30;2.58;;;7.10;79.60;;;;;;5007992;28;20472;-76
2022/02/25 09:10:25;;;;;;;7.55;2.08;;;7.20;79.40;;;;;;5006981;28;20022;-74
2022/02/25 09:12:51;;;;;;;10.93;2.45;;;7.30;79.10;;;;;;5006476;28;20467;-75
2022/02/25 09:15:22;;;;;;;7.78;2.25;;;7.40;78.70;;;;;;5008039;28;20025;-75
2022/02/25 09:17:56;;;;;;;9.82;2.40;;;7.60;78.40;;;;;;5003875;28;20389;-74
2022/02/25 09:20:22;;;;;;;9.57;2.50;;;7.60;78.00;;;;;;5004136;28;20104;-73
2022/02/25 09:22:49;;;;;;;9.10;2.47;;;7.60;77.60;;;;;;5008599;28;20149;-75
2022/02/25 09:25:15;;;;;;;7.57;1.73;;;7.70;77.30;;;;;;5010476;28;20057;-74
2022/02/25 09:27:41;;;;;;;9.68;2.15;;;7.80;77.00;;;;;;5012475;28;20069;-74
2022/02/25 09:30:09;;;;;;;9.18;2.50;;;7.90;76.50;;;;;;5013260;28;20029;-74
2022/02/25 09:32:35;;;;;;;10.70;2.45;;;8.00;76.00;;;;;;5015680;28;20481;-73
2022/02/25 09:35:01;;;;;;;10.73;2.35;;;8.00;74.90;;;;;;5015269;28;20026;-74
2022/02/25 09:37:27;;;;;;;13.13;2.58;;;8.00;74.50;;;;;;5015670;28;20037;-75
2022/02/25 09:39:53;;;;;;;12.48;2.95;;;8.00;74.20;;;;;;5012735;28;20030;-74
2022/02/25 09:42:21;;;;;;;7.97;2.10;;;8.10;73.70;;;;;;5013678;28;20029;-74
2022/02/25 09:44:48;;;;;;;9.57;2.50;;;8.00;73.30;;;;;;5010194;28;20022;-73
2022/02/25 09:47:15;;;;;;;10.68;2.15;;;8.00;73.30;;;;;;5011918;28;20648;-72
2022/02/25 09:49:41;;;;;;;11.32;2.92;;;7.90;72.90;;;;;;5009365;28;20034;-74
2022/02/25 09:52:13;;;;;;;7.47;2.10;;;7.70;73.10;;;;;;5013387;28;20045;-73
2022/02/25 09:54:39;;;;;;;7.28;2.10;;;7.70;73.30;;;;;;5007442;28;20380;-74
2022/02/25 09:57:05;;;;;;;10.85;2.67;;;7.60;73.60;;;;;;5012597;28;20037;-76
2022/02/25 09:59:30;;;;;;;9.93;2.15;;;7.60;73.60;;;;;;5009440;28;20084;-77
2022/02/25 10:02:04;;;;;;;7.28;2.20;;;7.60;73.60;;;;;;5010038;28;20034;-76
2022/02/25 10:04:31;;;;;;;11.45;2.85;;;7.60;73.90;;;;;;5007359;28;20566;-75
2022/02/25 10:06:57;;;;;;;9.55;2.10;;;7.60;73.80;;;;;;5006273;28;20045;-74
2022/02/25 10:09:34;;;;;;;9.15;2.15;;;7.60;73.80;;;;;;5007221;28;20362;-74
2022/02/25 10:12:09;;;;;;;11.55;2.40;;;7.60;73.90;;;;;;5009407;28;20135;-73
2022/02/25 10:14:45;;;;;;;5.63;2.03;;;7.60;74.00;;;;;;5010202;28;20081;-74
2022/02/25 10:17:15;;;;;;;8.02;2.17;;;7.70;74.10;;;;;;5006589;28;20504;-75
2022/02/25 10:19:48;;;;;;;9.55;2.50;;;7.70;74.20;;;;;;5007548;28;20026;-75
2022/02/25 10:22:20;;;;;;;;;;;7.80;74.40;;;;;;5010263;28;20121;-76
2022/02/25 10:24:47;;;;;;;8.65;2.28;;;7.80;74.30;;;;;;5009681;28;19917;-75
2022/02/25 10:27:25;;;;;;;12.05;2.78;;;7.90;74.40;;;;;;5008949;28;20410;-75
2022/02/25 10:29:59;;;;;;;10.95;2.60;;;7.90;74.10;;;;;;5009773;28;20034;-76
2022/02/25 10:32:36;;;;;;;9.05;2.00;;;8.00;74.00;;;;;;5007612;28;20136;-77
2022/02/25 10:35:33;;;;;;;7.38;1.90;;;7.90;73.80;;;;;;5007126;28;20543;-77
2022/02/25 10:38:01;;;;;;;12.75;2.80;;;7.90;74.00;;;;;;5002832;28;20040;-78
2022/02/25 10:40:29;;;;;;;12.57;2.47;;;7.90;74.10;;;;;;5008674;28;20030;-76
2022/02/25 10:42:56;;;;;;;12.90;2.40;;;7.90;74.20;;;;;;5010179;28;20033;-78
2022/02/25 10:45:31;;;;;;;8.82;2.13;;;7.80;74.20;;;;;;5005395;28;21196;-75
2022/02/25 10:47:58;;;;;;;8.07;2.22;;;7.80;74.40;;;;;;5004156;28;20022;-75
2022/02/25 10:50:25;;;;;;;9.82;2.10;;;7.80;74.60;;;;;;5007591;28;20026;-75
2022/02/25 10:52:53;;;;;;;8.65;1.88;;;7.80;74.70;;;;;;5004988;28;20069;-75
2022/02/25 10:55:21;;;;;;;7.95;1.63;;;7.80;74.70;;;;;;5003991;28;20140;-76
2022/02/25 10:57:48;;;;;;;8.48;1.85;;;7.80;74.70;;;;;;5003581;28;20033;-76
2022/02/25 11:00:16;;;;;;;5.95;1.63;;;7.70;74.70;;;;;;5007513;28;20029;-76
2022/02/25 11:02:45;;;;;;;3.30;1.20;;;7.60;74.90;;;;;;5009127;28;20033;-75
2022/02/25 11:05:15;;;;;;;5.65;1.45;;;7.50;75.30;;;;;;5006373;28;20033;-76
2022/02/25 11:07:45;;;;;;;5.45;1.63;;;7.40;75.90;;;;;;5007611;28;20546;-75
2022/02/25 11:10:14;;;;;;;8.73;1.90;;;7.30;76.30;;;;;;5005624;28;20026;-75
2022/02/25 11:12:42;;;;;;;7.78;1.73;;;7.30;76.60;;;;;;5005727;28;20519;-74
2022/02/25 11:15:15;;;;;;;5.78;1.77;;;7.30;76.90;;;;;;5008716;28;20022;-74
2022/02/25 11:17:41;;;;;;;;;;;7.20;77.80;;;;;;5007456;28;20033;-76
2022/02/25 11:20:10;;;;;;;6.10;2.10;;;7.30;77.40;;;;;;5007556;28;20074;-75
2022/02/25 11:22:39;;;;;;;8.30;1.95;;;7.20;77.60;;;;;;5002535;28;20144;-75
2022/02/25 11:25:11;;;;;;;5.22;1.58;;;7.20;77.60;;;;;;5008141;28;20536;-74
2022/02/25 11:27:37;;;;;;;7.22;1.95;;;7.20;77.70;;;;;;5002340;28;20022;-76
2022/02/25 11:30:11;;;;;;;5.60;1.67;;;7.20;77.70;;;;;;5008576;28;20022;-75
2022/02/25 11:32:42;;;;;;;7.97;2.03;;;7.30;77.80;;;;;;5007647;28;20048;-76
2022/02/25 11:35:29;;;;;;;5.03;1.63;;;7.30;77.70;;;;;;5003265;28;20030;-77
2022/02/25 11:38:07;;;;;;;7.95;2.03;;;7.20;77.70;;;;;;5010572;28;20068;-77
2022/02/25 11:40:53;;;;;;;8.65;2.03;;;7.20;77.80;;;;;;5010115;28;20025;-77
2022/02/25 11:43:37;;;;;;;5.75;1.60;;;7.20;77.70;;;;;;5002843;28;20025;-76
2022/02/25 11:46:05;;;;;;;6.45;1.63;;;7.30;77.80;;;;;;5013389;28;20594;-77
2022/02/25 11:48:46;;;;;;;6.63;1.80;;;7.40;77.70;;;;;;5002588;28;20030;-76
2022/02/25 11:51:41;;;;;;;6.80;1.67;;;7.40;77.60;;;;;;5007670;28;20583;-75
2022/02/25 11:54:28;;;;;;;7.85;2.33;;;7.50;77.50;;;;;;5005235;28;20480;-75
2022/02/25 11:56:56;;;;;;;7.50;1.80;;;7.50;77.50;;;;;;5005010;28;20037;-75
2022/02/25 11:59:31;;;;;;;10.05;2.53;;;7.50;77.60;;;;;;5005810;28;20038;-75
2022/02/25 12:02:10;;;;;;;8.20;1.90;;;7.40;78.00;;;;;;5006503;28;20064;-75
2022/02/25 12:04:39;;;;;;;7.50;1.70;;;7.30;77.80;;;;;;5007747;28;20576;-76
2022/02/25 12:07:10;;;;;;;7.05;2.13;;;7.20;78.10;;;;;;5007867;28;20133;-74
2022/02/25 12:10:21;;;;;;;8.75;1.88;;;7.30;78.30;;;;;;5005147;28;20544;-75
2022/02/25 12:12:55;;;;;;;13.75;3.15;;;7.40;78.50;;;;;;4993931;28;20136;-74
2022/02/25 12:15:33;;;;;;;9.40;2.60;;;7.60;78.60;;;;;;5007303;28;20037;-74
2022/02/25 12:18:07;;;;;;;9.82;2.40;;;7.80;78.70;;;;;;5005760;28;20018;-74
2022/02/25 12:20:46;;;;;;;9.40;2.33;;;8.00;78.70;;;;;;5003524;28;20030;-74
2022/02/25 12:23:19;;;;;;;13.23;2.72;;;8.20;78.40;;;;;;5006595;28;20033;-74
2022/02/25 12:25:49;;;;;;;11.48;2.20;;;8.20;78.00;;;;;;5004614;28;20022;-77
2022/02/25 12:28:26;;;;;;;10.45;2.85;;;8.20;77.90;;;;;;5003733;28;20041;-76
2022/02/25 12:31:13;;;;;;;9.70;2.65;;;8.20;77.90;;;;;;5003681;28;20030;-75
2022/02/25 12:33:40;;;;;;;10.18;2.50;;;8.10;77.90;;;;;;5011848;28;20068;-76
2022/02/25 12:36:29;;;;;;;7.63;2.08;;;8.10;78.00;;;;;;5007508;28;20026;-73
2022/02/25 12:39:03;;;;;;;9.25;2.30;;;8.10;78.00;;;;;;5005870;28;20452;-75
2022/02/25 12:41:41;;;;;;;11.35;2.50;;;8.10;77.70;;;;;;5004746;28;20029;-75
2022/02/25 12:44:09;;;;;;;11.55;2.72;;;8.30;77.80;;;;;;5005879;28;20034;-74
2022/02/25 12:47:00;;;;;;;9.70;2.63;;;8.50;77.40;;;;;;5003745;28;20030;-76
2022/02/25 12:49:28;;;;;;;7.18;2.33;;;8.70;76.70;;;;;;5005627;28;20046;-75
2022/02/25 12:51:58;;;;;;;9.75;2.75;;;8.80;76.00;;;;;;5008753;28;20048;-75
2022/02/25 12:54:25;;;;;;;10.43;2.63;;;8.90;75.70;;;;;;5003561;28;20100;-77
2022/02/25 12:56:57;;;;;;;9.32;2.42;;;9.00;75.50;;;;;;5005952;28;20052;-76
2022/02/25 12:59:37;;;;;;;10.90;2.50;;;9.20;75.20;;;;;;5003029;28;20065;-73
2022/02/25 13:02:07;;;;;;;8.73;2.28;;;9.30;74.20;;;;;;5005483;28;20514;-73
2022/02/25 13:04:40;;;;;;;10.57;2.63;;;9.50;73.50;;;;;;5005278;28;20032;-74